Time,TemperatureF,DewpointF,PressureIn,WindDirection,WindDirectionDegrees,WindSpeedMPH,WindSpeedGustMPH,Humidity,HourlyPrecipIn,Conditions,Clouds,dailyrainin,SoftwareType,DateUTC
2013-09-14 00:01:00,62.9,49.7,29.75,ENE,58,2.0,6.0,62,0.00,CLR,,0.00,WeatherDisplay:10.37,2013-09-14 05:01:00,
2013-09-14 00:31:00,63.2,49.5,29.73,NNE,14,2.0,13.0,61,0.00,CLR,,0.00,WeatherDisplay:10.37,2013-09-14 05:31:00,
2013-09-14 01:01:00,62.9,49.7,29.73,NE,49,3.0,17.0,62,0.00,CLR,,0.00,WeatherDisplay:10.37,2013-09-14 06:01:00,
2013-09-14 01:31:00,62.3,50.0,29.73,North,3,2.0,12.0,64,0.00,CLR,,0.00,WeatherDisplay:10.37,2013-09-14 06:31:00,
2013-09-14 02:01:00,61.3,49.5,29.73,ENE,60,2.0,12.0,65,0.00,CLR,,0.00,WeatherDisplay:10.37,2013-09-14 07:01:00,
2013-09-14 02:31:00,61.2,49.3,29.73,NNE,19,0.0,10.0,65,0.00,CLR,,0.00,WeatherDisplay:10.37,2013-09-14 07:31:00,
2013-09-14 03:01:00,60.7,49.3,29.72,SSW,198,3.0,10.0,66,0.00,CLR,,0.00,WeatherDisplay:10.37,2013-09-14 08:01:00,
2013-09-14 03:31:00,61.3,49.0,29.70,SSE,165,2.0,18.0,64,0.00,CLR,,0.00,WeatherDisplay:10.37,2013-09-14 08:31:00,
2013-09-14 04:01:00,61.0,48.7,29.69,SSW,211,6.0,16.0,64,0.00,CLR,,0.00,WeatherDisplay:10.37,2013-09-14 09:01:00,
2013-09-14 04:31:00,60.9,48.6,29.67,SW,226,2.0,12.0,64,0.00,CLR,,0.00,WeatherDisplay:10.37,2013-09-14 09:31:00,
2013-09-14 05:01:00,60.4,47.7,29.68,SSW,199,1.0,12.0,63,0.00,CLR,,0.00,WeatherDisplay:10.37,2013-09-14 10:01:00,
2013-09-14 05:31:00,60.1,47.9,29.70,NE,41,1.0,7.0,64,0.00,CLR,,0.00,WeatherDisplay:10.37,2013-09-14 10:31:00,
2013-09-14 06:01:00,59.5,47.7,29.70,NE,43,3.0,7.0,65,0.00,CLR,,0.00,WeatherDisplay:10.37,2013-09-14 11:01:00,
2013-09-14 06:31:00,58.4,47.5,29.73,NE,44,0.0,3.0,67,0.00,CLR,,0.00,WeatherDisplay:10.37,2013-09-14 11:31:00,
2013-09-14 07:01:00,59.6,48.6,29.72,North,4,2.0,8.0,67,0.00,CLR,,0.00,WeatherDisplay:10.37,2013-09-14 12:01:00,
2013-09-14 07:31:00,59.2,49.0,29.75,North,349,0.0,12.0,69,0.00,CLR,,0.00,WeatherDisplay:10.37,2013-09-14 12:31:00,
2013-09-14 08:02:00,56.2,48.4,29.77,SE,137,0.0,5.0,75,0.00,CLR,,0.00,WeatherDisplay:10.37,2013-09-14 13:02:00,
2013-09-14 08:32:00,56.0,49.5,29.78,SE,137,2.0,3.0,79,0.00,CLR,,0.00,WeatherDisplay:10.37,2013-09-14 13:32:00,
2013-09-14 09:02:00,62.8,51.7,29.75,ENE,67,0.0,6.0,67,0.00,CLR,,0.00,WeatherDisplay:10.37,2013-09-14 14:02:00,
2013-09-14 09:32:00,65.3,51.5,29.76,WNW,296,1.0,5.0,61,0.00,CLR,,0.00,WeatherDisplay:10.37,2013-09-14 14:32:00,
2013-09-14 10:02:00,67.1,52.3,29.75,NW,325,1.0,10.0,59,0.00,CLR,,0.00,WeatherDisplay:10.37,2013-09-14 15:02:00,
2013-09-14 10:32:00,68.4,51.1,29.77,NE,55,1.0,12.0,54,0.00,CLR,,0.00,WeatherDisplay:10.37,2013-09-14 15:32:00,
2013-09-14 11:02:00,68.3,51.0,29.77,ESE,104,5.0,13.0,54,0.00,CLR,,0.00,WeatherDisplay:10.37,2013-09-14 16:02:00,
2013-09-14 11:32:00,70.4,51.9,29.77,NW,304,1.0,14.0,52,0.00,CLR,,0.00,WeatherDisplay:10.37,2013-09-14 16:32:00,
2013-09-14 12:02:00,68.3,51.1,29.79,SW,220,3.0,16.0,54,0.00,CLR,,0.00,WeatherDisplay:10.37,2013-09-14 17:02:00,
2013-09-14 12:32:00,70.6,50.0,29.77,NNW,332,2.0,15.0,48,0.00,CLR,,0.00,WeatherDisplay:10.37,2013-09-14 17:32:00,
2013-09-14 13:02:00,72.3,49.2,29.75,SW,223,2.0,13.0,44,0.00,CLR,,0.00,WeatherDisplay:10.37,2013-09-14 18:02:00,
2013-09-14 13:32:00,72.7,50.1,29.74,SSE,150,3.0,13.0,45,0.00,CLR,,0.00,WeatherDisplay:10.37,2013-09-14 18:32:00,
2013-09-14 14:01:00,73.3,49.4,29.74,WSW,239,2.0,13.0,43,0.00,CLR,,0.00,WeatherDisplay:10.37,2013-09-14 19:01:00,
2013-09-14 14:31:00,73.7,48.5,29.73,SSE,160,2.0,13.0,41,0.00,CLR,,0.00,WeatherDisplay:10.37,2013-09-14 19:31:00,
2013-09-14 15:01:00,74.5,48.6,29.71,SSW,202,8.0,16.0,40,0.00,CLR,,0.00,WeatherDisplay:10.37,2013-09-14 20:01:00,
2013-09-14 15:31:00,74.0,48.8,29.70,ENE,78,1.0,14.0,41,0.00,CLR,,0.00,WeatherDisplay:10.37,2013-09-14 20:31:00,
2013-09-14 16:01:00,74.2,49.7,29.69,East,91,3.0,16.0,42,0.00,CLR,,0.00,WeatherDisplay:10.37,2013-09-14 21:01:00,
2013-09-14 16:31:00,73.0,49.2,29.70,SE,135,2.0,13.0,43,0.00,CLR,,0.00,WeatherDisplay:10.37,2013-09-14 21:31:00,
2013-09-14 17:01:00,76.1,49.3,29.67,ESE,116,3.0,12.0,39,0.00,CLR,,0.00,WeatherDisplay:10.37,2013-09-14 22:01:00,
2013-09-14 17:31:00,75.3,48.6,29.68,WSW,249,1.0,12.0,39,0.00,CLR,,0.00,WeatherDisplay:10.37,2013-09-14 22:31:00,
2013-09-14 18:01:00,74.8,50.2,29.68,East,80,2.0,12.0,42,0.00,CLR,,0.00,WeatherDisplay:10.37,2013-09-14 23:01:00,
2013-09-14 18:31:00,73.3,50.1,29.70,ENE,74,0.0,12.0,44,0.00,CLR,,0.00,WeatherDisplay:10.37,2013-09-14 23:31:00,
2013-09-14 19:01:00,72.8,49.0,29.71,SE,145,2.0,9.0,43,0.00,CLR,,0.00,WeatherDisplay:10.37,2013-09-15 00:01:00,
2013-09-14 19:31:00,72.7,49.5,29.74,ENE,73,3.0,8.0,44,0.00,CLR,,0.00,WeatherDisplay:10.37,2013-09-15 00:31:00,
2013-09-14 20:01:00,71.6,48.5,29.75,SE,143,5.0,8.0,44,0.00,CLR,,0.00,WeatherDisplay:10.37,2013-09-15 01:01:00,
2013-09-14 20:31:00,70.8,44.6,29.71,East,84,2.0,8.0,39,0.00,CLR,,0.00,WeatherDisplay:10.37,2013-09-15 01:31:00,
2013-09-14 21:01:00,70.2,43.4,29.72,East,83,3.0,14.0,38,0.00,CLR,,0.00,WeatherDisplay:10.37,2013-09-15 02:01:00,
2013-09-14 21:31:00,69.7,42.9,29.71,East,82,6.0,18.0,38,0.00,CLR,,0.00,WeatherDisplay:10.37,2013-09-15 02:31:00,
2013-09-14 22:01:00,68.6,42.0,29.73,ENE,74,7.0,17.0,38,0.00,CLR,,0.00,WeatherDisplay:10.37,2013-09-15 03:01:00,
2013-09-14 22:31:00,67.4,42.2,29.74,NNE,31,6.0,12.0,40,0.00,CLR,,0.00,WeatherDisplay:10.37,2013-09-15 03:31:00,
2013-09-14 23:01:00,66.8,43.0,29.75,NNE,33,1.0,7.0,42,0.00,CLR,,0.00,WeatherDisplay:10.37,2013-09-15 04:01:00,
2013-09-14 23:31:00,66.0,44.6,29.75,North,2,1.0,10.0,46,0.00,CLR,,0.00,WeatherDisplay:10.37,2013-09-15 04:31:00,